createdAt,value
2019-04-20T00:02:08.337Z,10.23
2019-04-20T00:04:35.233Z,10.38
2019-04-20T00:07:02.020Z,10.27
2019-04-20T00:09:34.626Z,10.23
2019-04-20T00:12:10.844Z,10.31
2019-04-20T00:14:36.265Z,10.34
2019-04-20T00:17:05.138Z,10.41
2019-04-20T00:19:40.749Z,10.38
2019-04-20T00:22:14.894Z,10.27
2019-04-20T00:25:06.647Z,10.11
2019-04-20T00:27:55.752Z,10.04
2019-04-20T00:30:28.773Z,9.97
2019-04-20T00:32:51.251Z,9.95
2019-04-20T00:35:08.261Z,9.96
2019-04-20T00:37:38.058Z,9.99
2019-04-20T00:40:07.874Z,10.07
2019-04-20T00:42:44.955Z,9.94
2019-04-20T00:45:16.230Z,9.96
2019-04-20T00:47:47.808Z,9.91
2019-04-20T00:50:28.295Z,9.86
2019-04-20T00:52:55.779Z,9.83
2019-04-20T00:55:12.862Z,9.86
2019-04-20T00:57:47.523Z,9.92
2019-04-20T01:00:33.912Z,9.77
2019-04-20T01:02:56.915Z,9.71
2019-04-20T01:05:43.382Z,9.65
2019-04-20T01:08:12.921Z,9.73
2019-04-20T01:10:47.250Z,9.76
2019-04-20T01:13:19.813Z,9.74
2019-04-20T01:15:52.738Z,9.72
2019-04-20T01:18:16.581Z,9.70
2019-04-20T01:20:45.833Z,9.50
2019-04-20T01:23:17.859Z,9.52
2019-04-20T01:25:52.005Z,9.26
2019-04-20T01:28:32.411Z,9.21
2019-04-20T01:31:01.370Z,9.12
2019-04-20T01:33:31.818Z,9.14
2019-04-20T01:36:03.493Z,9.15
2019-04-20T01:38:34.262Z,9.11
2019-04-20T01:40:52.706Z,9.01
2019-04-20T01:43:22.713Z,8.98
2019-04-20T01:45:59.306Z,8.98
2019-04-20T01:48:28.722Z,8.99
2019-04-20T01:51:06.574Z,8.93
2019-04-20T01:53:44.322Z,8.92
2019-04-20T01:56:18.136Z,8.90
2019-04-20T01:59:04.612Z,8.86
2019-04-20T02:01:56.521Z,8.87
2019-04-20T02:04:32.294Z,8.85
2019-04-20T02:07:00.473Z,8.83
2019-04-20T02:09:31.153Z,8.79
2019-04-20T02:12:05.042Z,8.78
2019-04-20T02:14:38.795Z,8.85
2019-04-20T02:17:11.715Z,8.85
2019-04-20T02:19:51.014Z,8.68
2019-04-20T02:22:15.696Z,8.71
2019-04-20T02:24:34.361Z,8.71
2019-04-20T02:27:04.161Z,8.64
2019-04-20T02:30:02.803Z,8.61
2019-04-20T02:32:29.254Z,8.64
2019-04-20T02:35:29.921Z,8.59
2019-04-20T02:38:22.539Z,8.58
2019-04-20T02:40:51.125Z,8.50
2019-04-20T02:43:32.921Z,8.54
2019-04-20T02:45:57.752Z,8.51
2019-04-20T02:48:21.746Z,8.48
2019-04-20T02:50:56.228Z,8.48
2019-04-20T02:55:58.539Z,8.01
2019-04-20T02:58:22.945Z,8.17
2019-04-20T03:00:52.748Z,8.26
2019-04-20T03:03:10.212Z,8.08
2019-04-20T03:05:39.461Z,8.18
2019-04-20T03:08:19.120Z,8.27
2019-04-20T03:10:54.974Z,8.29
2019-04-20T03:13:18.324Z,8.26
2019-04-20T03:15:51.866Z,8.27
2019-04-20T03:18:19.656Z,8.24
2019-04-20T03:20:52.837Z,7.98
2019-04-20T03:23:31.320Z,7.98
2019-04-20T03:26:12.524Z,7.82
2019-04-20T03:28:54.080Z,7.80
2019-04-20T03:34:35.747Z,7.91
2019-04-20T03:36:45.317Z,7.90
2019-04-20T03:38:57.464Z,7.95
2019-04-20T03:41:22.505Z,7.95
2019-04-20T03:43:43.536Z,8.02
2019-04-20T03:46:17.402Z,8.01
2019-04-20T03:48:58.610Z,7.95
2019-04-20T03:51:42.373Z,7.96
2019-04-20T03:54:38.075Z,7.86
2019-04-20T03:57:29.372Z,7.81
2019-04-20T04:00:00.469Z,7.73
2019-04-20T04:02:57.569Z,7.75
2019-04-20T04:05:27.472Z,7.62
2019-04-20T04:07:50.868Z,7.53
2019-04-20T04:10:28.232Z,7.55
2019-04-20T04:13:09.605Z,7.64
2019-04-20T04:15:46.773Z,7.65
2019-04-20T04:18:17.749Z,7.64
2019-04-20T04:20:50.008Z,7.60
2019-04-20T04:23:32.957Z,7.33
2019-04-20T04:26:04.464Z,7.47
2019-04-20T04:28:31.167Z,7.53
2019-04-20T04:31:09.486Z,7.41
2019-04-20T04:33:55.803Z,7.52
2019-04-20T04:36:05.851Z,7.58
2019-04-20T04:38:44.674Z,7.57
2019-04-20T04:41:13.975Z,7.37
2019-04-20T04:43:39.734Z,7.33
2019-04-20T04:45:51.782Z,7.18
2019-04-20T04:48:28.266Z,7.26
2019-04-20T04:50:59.061Z,7.41
2019-04-20T04:53:38.872Z,7.46
2019-04-20T04:56:00.397Z,7.53
2019-04-20T04:58:25.666Z,7.53
2019-04-20T05:01:07.353Z,7.54
2019-04-20T05:03:44.726Z,7.38
2019-04-20T05:06:24.745Z,7.44
2019-04-20T05:08:43.779Z,7.43
2019-04-20T05:11:08.887Z,7.51
2019-04-20T05:13:47.955Z,7.65
2019-04-20T05:16:26.987Z,7.63
2019-04-20T05:19:02.153Z,7.66
2019-04-20T05:21:47.658Z,7.74
2019-04-20T05:24:33.749Z,7.81
2019-04-20T05:27:32.105Z,7.93
2019-04-20T05:29:39.822Z,8.02
2019-04-20T05:32:14.752Z,8.16
2019-04-20T05:35:07.367Z,8.18
2019-04-20T05:37:33.381Z,8.30
2019-04-20T05:40:07.428Z,8.41
2019-04-20T05:42:35.935Z,8.46
2019-04-20T05:45:09.066Z,8.58
2019-04-20T05:47:33.358Z,8.70
2019-04-20T05:50:01.467Z,8.79
2019-04-20T05:55:13.128Z,8.96
2019-04-20T05:57:42.251Z,9.09
2019-04-20T06:00:17.350Z,9.20
2019-04-20T06:02:44.132Z,9.30
2019-04-20T06:05:17.493Z,9.37
2019-04-20T06:07:48.836Z,9.45
2019-04-20T06:10:20.771Z,9.54
2019-04-20T06:12:50.286Z,9.66
2019-04-20T06:15:42.065Z,9.75
2019-04-20T06:18:06.701Z,9.84
2019-04-20T06:21:07.855Z,9.98
2019-04-20T06:23:42.772Z,10.10
2019-04-20T06:26:20.759Z,10.19
2019-04-20T06:28:32.242Z,10.35
2019-04-20T06:31:09.060Z,10.40
2019-04-20T06:36:53.684Z,10.69
2019-04-20T06:39:36.417Z,11.01
2019-04-20T06:44:33.185Z,11.55
2019-04-20T06:47:15.825Z,11.73
2019-04-20T06:49:35.133Z,11.88
2019-04-20T06:52:20.357Z,12.12
2019-04-20T06:54:57.967Z,12.34
2019-04-20T06:57:35.702Z,12.35
2019-04-20T07:00:07.466Z,12.47
2019-04-20T07:02:41.538Z,12.37
2019-04-20T07:07:43.239Z,12.92
2019-04-20T07:10:14.980Z,13.13
2019-04-20T07:12:39.875Z,13.19
2019-04-20T07:14:58.932Z,13.53
2019-04-20T07:17:54.646Z,13.59
2019-04-20T07:20:35.104Z,13.91
2019-04-20T07:23:11.964Z,13.95
2019-04-20T07:25:31.088Z,14.30
2019-04-20T07:28:05.441Z,14.44
2019-04-20T07:30:34.705Z,14.56
2019-04-20T07:33:04.126Z,14.72
2019-04-20T07:35:38.778Z,15.01
2019-04-20T07:40:36.088Z,14.94
2019-04-20T07:43:04.633Z,15.15
2019-04-20T07:45:46.229Z,15.41
2019-04-20T07:50:36.200Z,15.77
2019-04-20T07:53:08.647Z,15.93
2019-04-20T07:55:51.750Z,16.02
2019-04-20T07:58:10.060Z,16.26
2019-04-20T08:00:55.171Z,16.21
2019-04-20T08:03:39.090Z,16.26
2019-04-20T08:06:19.305Z,16.43
2019-04-20T08:08:57.396Z,16.63
2019-04-20T08:11:36.083Z,16.70
2019-04-20T08:14:06.107Z,17.08
2019-04-20T08:16:49.004Z,17.28
2019-04-20T08:19:08.201Z,17.23
2019-04-20T08:21:40.905Z,17.52
2019-04-20T08:24:07.458Z,17.79
2019-04-20T08:26:27.203Z,17.80
2019-04-20T08:29:01.544Z,18.04
2019-04-20T08:31:47.160Z,18.20
2019-04-20T08:34:31.317Z,18.20
2019-04-20T08:37:01.053Z,18.30
2019-04-20T08:42:00.249Z,18.44
2019-04-20T08:45:02.969Z,18.41
2019-04-20T08:47:10.259Z,18.53
2019-04-20T08:49:35.467Z,18.64
2019-04-20T08:52:36.729Z,18.64
2019-04-20T08:54:34.565Z,18.76
2019-04-20T08:56:54.786Z,18.89
2019-04-20T08:59:18.927Z,18.87
2019-04-20T09:01:48.936Z,18.77
2019-04-20T09:04:22.983Z,18.81
2019-04-20T09:07:04.058Z,18.91
2019-04-20T09:09:49.619Z,18.89
2019-04-20T09:12:40.594Z,19.03
2019-04-20T09:14:55.294Z,19.18
2019-04-20T09:17:41.008Z,19.14
2019-04-20T09:20:16.406Z,19.21
2019-04-20T09:23:08.115Z,19.27
2019-04-20T09:26:26.970Z,19.45
2019-04-20T09:29:13.935Z,19.48
2019-04-20T09:31:52.013Z,19.53
2019-04-20T09:34:51.318Z,19.59
2019-04-20T09:37:29.603Z,19.65
2019-04-20T09:40:04.762Z,19.81
2019-04-20T09:42:21.453Z,19.71
2019-04-20T09:44:55.555Z,19.69
2019-04-20T09:47:27.471Z,19.78
2019-04-20T09:50:03.339Z,19.82
2019-04-20T09:52:38.156Z,19.75
2019-04-20T09:55:09.466Z,20.00
2019-04-20T09:57:43.699Z,19.88
2019-04-20T10:00:12.065Z,19.89
2019-04-20T10:02:32.495Z,20.01
2019-04-20T10:04:59.749Z,20.10
2019-04-20T10:07:33.531Z,20.33
2019-04-20T10:10:00.351Z,20.45
2019-04-20T10:12:29.627Z,20.33
2019-04-20T10:15:06.553Z,20.39
2019-04-20T10:17:31.857Z,20.41
2019-04-20T10:20:02.565Z,20.55
2019-04-20T10:22:32.898Z,20.58
2019-04-20T10:25:08.755Z,20.77
2019-04-20T10:27:42.021Z,20.64
2019-04-20T10:30:12.469Z,20.74
2019-04-20T10:32:45.621Z,20.75
2019-04-20T10:35:15.110Z,21.02
2019-04-20T10:37:49.421Z,21.01
2019-04-20T10:40:34.455Z,20.96
2019-04-20T10:42:50.113Z,21.06
2019-04-20T10:45:21.161Z,21.24
2019-04-20T10:47:50.804Z,21.38
2019-04-20T10:50:20.941Z,21.49
2019-04-20T10:52:50.386Z,21.52
2019-04-20T10:55:20.746Z,21.41
2019-04-20T10:57:51.187Z,21.57
2019-04-20T11:00:26.150Z,21.56
2019-04-20T11:02:55.514Z,21.67
2019-04-20T11:05:24.737Z,21.64
2019-04-20T11:07:54.720Z,21.84
2019-04-20T11:10:28.591Z,22.13
2019-04-20T11:12:55.265Z,22.28
2019-04-20T11:15:26.252Z,21.99
2019-04-20T11:17:55.545Z,22.07
2019-04-20T11:20:25.549Z,22.19
2019-04-20T11:22:56.025Z,22.39
2019-04-20T11:25:35.522Z,22.49
2019-04-20T11:28:14.371Z,22.63
2019-04-20T11:30:44.314Z,22.77
2019-04-20T11:33:14.051Z,22.92
2019-04-20T11:35:45.268Z,22.93
2019-04-20T11:38:17.117Z,23.18
2019-04-20T11:40:48.249Z,22.98
2019-04-20T11:43:17.831Z,22.95
2019-04-20T11:45:47.153Z,22.88
2019-04-20T11:48:16.408Z,23.09
2019-04-20T11:50:45.624Z,23.27
2019-04-20T11:53:15.315Z,23.17
2019-04-20T11:55:44.793Z,23.30
2019-04-20T11:58:14.302Z,23.31
2019-04-20T12:00:58.625Z,23.73
2019-04-20T12:03:28.205Z,23.69
2019-04-20T12:05:56.990Z,23.65
2019-04-20T12:08:25.026Z,23.75
2019-04-20T12:10:58.396Z,23.70
2019-04-20T12:13:26.564Z,23.76
2019-04-20T12:15:56.137Z,23.75
2019-04-20T12:18:29.487Z,24.13
2019-04-20T12:20:59.002Z,24.22
2019-04-20T12:23:28.526Z,24.16
2019-04-20T12:25:59.710Z,24.28
2019-04-20T12:28:29.591Z,24.32
2019-04-20T12:31:04.039Z,24.38
2019-04-20T12:33:30.660Z,24.27
2019-04-20T12:36:03.183Z,24.48
2019-04-20T12:38:32.932Z,24.55
2019-04-20T12:41:04.837Z,24.74
2019-04-20T12:43:33.949Z,24.98
2019-04-20T12:46:03.289Z,25.18
2019-04-20T12:48:33.632Z,25.44
2019-04-20T12:51:11.395Z,25.38
2019-04-20T12:53:40.730Z,25.50
2019-04-20T12:56:10.671Z,25.43
2019-04-20T12:58:43.325Z,25.76
2019-04-20T13:01:12.198Z,25.86
2019-04-20T13:03:41.598Z,26.27
2019-04-20T13:06:12.115Z,26.49
2019-04-20T13:08:45.127Z,26.58
2019-04-20T13:11:26.719Z,26.83
2019-04-20T13:14:36.233Z,26.92
2019-04-20T13:17:06.214Z,27.12
2019-04-20T13:19:39.226Z,28.02
2019-04-20T13:22:08.851Z,28.87
2019-04-20T13:24:39.104Z,29.90
2019-04-20T13:27:09.014Z,30.77
2019-04-20T13:29:38.519Z,31.07
2019-04-20T13:32:07.767Z,32.15
2019-04-20T13:34:38.151Z,32.70
2019-04-20T13:37:08.455Z,32.52
2019-04-20T13:39:38.696Z,33.50
2019-04-20T13:42:15.025Z,33.00
2019-04-20T13:44:39.352Z,32.46
2019-04-20T13:47:09.177Z,32.65
2019-04-20T13:49:38.883Z,32.52
2019-04-20T13:52:08.771Z,32.98
2019-04-20T13:54:38.145Z,33.79
2019-04-20T13:57:08.303Z,34.48
2019-04-20T13:59:44.960Z,33.38
2019-04-20T14:02:22.721Z,34.01
2019-04-20T14:04:55.205Z,33.45
2019-04-20T14:07:25.453Z,33.19
2019-04-20T14:09:55.372Z,34.12
2019-04-20T14:12:31.562Z,33.64
2019-04-20T14:14:55.647Z,33.73
2019-04-20T14:17:26.401Z,34.56
2019-04-20T14:44:41.707Z,34.66
2019-04-20T14:47:11.899Z,34.58
2019-04-20T14:49:41.335Z,34.28
2019-04-20T14:52:11.473Z,35.00
2019-04-20T14:54:41.441Z,34.62
2019-04-20T14:57:11.712Z,35.17
2019-04-20T14:59:45.436Z,35.75
2019-04-20T15:02:17.371Z,34.96
2019-04-20T15:04:47.424Z,34.83
2019-04-20T15:07:16.645Z,34.94
2019-04-20T15:09:52.998Z,34.99
2019-04-20T15:12:22.259Z,34.65
2019-04-20T15:14:52.543Z,34.99
2019-04-20T15:17:37.530Z,35.42
2019-04-20T15:20:17.225Z,35.47
2019-04-20T15:22:49.841Z,35.29
2019-04-20T15:25:19.539Z,35.14
2019-04-20T15:27:49.980Z,35.37
2019-04-20T15:46:27.766Z,36.32
2019-04-20T15:48:57.741Z,36.72
2019-04-20T15:51:27.954Z,36.40
2019-04-20T15:53:57.719Z,36.13
2019-04-20T15:56:27.065Z,34.70
2019-04-20T15:58:58.843Z,35.17
2019-04-20T16:01:34.359Z,34.72
2019-04-20T16:04:11.747Z,34.11
2019-04-20T16:06:41.197Z,32.75
2019-04-20T16:09:12.371Z,33.13
2019-04-20T16:11:41.716Z,32.88
2019-04-20T16:14:10.949Z,33.51
2019-04-20T16:16:40.455Z,31.65
2019-04-20T16:27:15.710Z,32.63
2019-04-20T16:29:45.114Z,32.74
2019-04-20T16:32:32.730Z,31.98
2019-04-20T16:35:11.013Z,32.14
2019-04-20T16:37:40.357Z,31.12
2019-04-20T16:40:11.319Z,31.05
2019-04-20T16:42:42.266Z,30.72
2019-04-20T16:45:41.253Z,30.21
2019-04-20T16:48:10.836Z,29.59
2019-04-20T16:50:40.747Z,28.79
2019-04-20T16:53:10.767Z,27.67
2019-04-20T16:55:40.959Z,26.84
2019-04-20T16:58:10.325Z,26.42
2019-04-20T17:00:39.602Z,26.00
2019-04-20T17:03:09.195Z,25.87
2019-04-20T17:05:39.303Z,25.65
2019-04-20T17:08:11.137Z,25.44
2019-04-20T17:10:41.030Z,25.21
2019-04-20T17:49:57.586Z,23.50
2019-04-20T17:52:35.113Z,23.34
2019-04-20T17:54:51.566Z,23.14
2019-04-20T17:57:21.525Z,23.15
2019-04-20T17:59:59.682Z,23.05
2019-04-20T18:02:59.333Z,23.07
2019-04-20T18:05:44.832Z,22.46
2019-04-20T18:08:10.328Z,22.63
2019-04-20T18:10:35.161Z,22.51
2019-04-20T18:12:56.552Z,22.52
2019-04-20T18:15:40.385Z,22.52
2019-04-20T18:18:46.536Z,22.42
2019-04-20T18:21:26.548Z,22.17
2019-04-20T18:23:56.315Z,21.98
2019-04-20T18:26:43.242Z,21.75
2019-04-20T18:29:13.467Z,21.76
2019-04-20T18:31:49.359Z,21.58
2019-04-20T18:34:44.968Z,21.49
2019-04-20T18:37:16.912Z,21.21
2019-04-20T18:39:54.756Z,21.13
2019-04-20T18:42:24.950Z,21.00
2019-04-20T18:45:09.153Z,20.92
2019-04-20T18:47:44.249Z,20.78
2019-04-20T18:49:57.274Z,20.69
2019-04-20T18:52:20.037Z,20.68
2019-04-20T18:54:53.328Z,20.70
2019-04-20T18:57:27.207Z,20.71
2019-04-20T18:59:55.274Z,20.75
2019-04-20T19:02:29.408Z,20.61
2019-04-20T19:04:58.621Z,20.54
2019-04-20T19:07:27.984Z,20.60
2019-04-20T19:10:02.606Z,20.53
2019-04-20T19:12:41.494Z,20.23
2019-04-20T19:15:31.964Z,20.37
2019-04-20T19:18:06.807Z,20.37
2019-04-20T19:20:29.007Z,20.24
2019-04-20T19:22:59.942Z,20.12
2019-04-20T19:25:33.115Z,20.11
2019-04-20T19:28:02.865Z,20.07
2019-04-20T19:30:40.677Z,19.96
2019-04-20T19:33:18.994Z,19.89
2019-04-20T19:35:46.621Z,19.71
2019-04-20T19:38:12.595Z,19.61
2019-04-20T19:40:47.819Z,19.64
2019-04-20T19:43:15.679Z,19.53
2019-04-20T19:46:07.416Z,19.46
2019-04-20T19:48:22.713Z,19.55
2019-04-20T19:51:08.433Z,19.42
2019-04-20T19:53:32.454Z,19.44
2019-04-20T19:55:56.331Z,19.35
2019-04-20T19:58:28.443Z,19.30
2019-04-20T20:00:55.357Z,19.19
2019-04-20T20:03:23.869Z,19.19
2019-04-20T20:05:54.791Z,19.05
2019-04-20T20:08:28.142Z,19.10
2019-04-20T20:10:59.232Z,19.10
2019-04-20T20:13:33.218Z,19.04
2019-04-20T20:16:09.038Z,18.96
2019-04-20T20:18:46.596Z,18.96
2019-04-20T20:21:15.210Z,18.90
2019-04-20T20:23:32.185Z,18.85
2019-04-20T20:26:03.943Z,18.82
2019-04-20T20:28:43.682Z,18.69
2019-04-20T20:31:17.088Z,18.61
2019-04-20T20:33:52.841Z,18.51
2019-04-20T20:36:12.574Z,18.47
2019-04-20T20:38:46.870Z,18.46
2019-04-20T20:41:20.562Z,18.45
2019-04-20T20:43:56.316Z,18.36
2019-04-20T20:46:27.189Z,18.28
2019-04-20T20:49:21.753Z,18.32
2019-04-20T20:51:45.703Z,18.29
2019-04-20T20:54:03.244Z,18.32
2019-04-20T20:56:28.952Z,18.24
2019-04-20T20:59:04.007Z,18.06
2019-04-20T21:01:39.007Z,17.87
2019-04-20T21:03:58.572Z,17.76
2019-04-20T21:06:31.042Z,17.65
2019-04-20T21:09:02.036Z,17.30
2019-04-20T21:11:35.993Z,16.94
2019-04-20T21:14:24.315Z,16.86
2019-04-20T21:17:00.406Z,16.76
2019-04-20T21:19:36.879Z,16.47
2019-04-20T21:22:01.056Z,16.42
2019-04-20T21:24:30.371Z,16.33
2019-04-20T21:27:07.001Z,16.32
2019-04-20T21:29:37.827Z,16.23
2019-04-20T21:32:08.657Z,16.11
2019-04-20T21:34:33.432Z,15.90
2019-04-20T21:37:11.663Z,15.79
2019-04-20T21:39:42.465Z,15.64
2019-04-20T21:42:12.022Z,15.62
2019-04-20T21:44:41.351Z,15.52
2019-04-20T21:47:07.330Z,15.48
2019-04-20T21:49:49.662Z,15.51
2019-04-20T21:52:18.395Z,15.48
2019-04-20T21:54:42.242Z,15.52
2019-04-20T21:57:13.220Z,15.44
2019-04-20T21:59:48.343Z,15.36
2019-04-20T22:02:25.294Z,15.36
2019-04-20T22:04:51.429Z,15.16
2019-04-20T22:07:22.682Z,14.93
2019-04-20T22:09:56.881Z,14.85
2019-04-20T22:12:37.843Z,14.82
2019-04-20T22:15:07.451Z,14.68
2019-04-20T22:17:33.051Z,14.53
2019-04-20T22:20:18.900Z,14.32
2019-04-20T22:22:52.334Z,13.91
2019-04-20T22:25:28.374Z,13.81
2019-04-20T22:27:42.284Z,13.62
2019-04-20T22:30:14.431Z,13.56
2019-04-20T22:32:47.000Z,13.36
2019-04-20T22:35:17.502Z,13.08
2019-04-20T22:38:01.153Z,12.95
2019-04-20T22:40:31.995Z,12.90
2019-04-20T22:43:00.588Z,12.88
2019-04-20T22:45:33.961Z,12.81
2019-04-20T22:48:08.201Z,12.89
2019-04-20T22:50:45.959Z,13.03
2019-04-20T22:53:17.956Z,12.92
2019-04-20T22:55:57.738Z,13.04
2019-04-20T22:58:23.602Z,13.01
2019-04-20T23:00:45.255Z,12.85
2019-04-20T23:03:09.140Z,12.69
2019-04-20T23:05:38.700Z,12.65
2019-04-20T23:08:08.653Z,12.61
2019-04-20T23:10:42.213Z,12.59
2019-04-20T23:13:09.620Z,12.37
2019-04-20T23:15:42.416Z,12.31
2019-04-20T23:18:11.945Z,12.21
2019-04-20T23:20:42.771Z,12.00
2019-04-20T23:23:19.757Z,12.08
2019-04-20T23:25:47.228Z,12.00
2019-04-20T23:28:18.061Z,11.90
2019-04-20T23:30:51.895Z,11.83
2019-04-20T23:33:20.160Z,11.76
2019-04-20T23:35:54.662Z,11.66
2019-04-20T23:38:23.181Z,11.69
2019-04-20T23:40:52.216Z,11.70
2019-04-20T23:43:29.957Z,11.68
2019-04-20T23:46:17.256Z,11.64
2019-04-20T23:49:13.524Z,11.52
2019-04-20T23:52:00.697Z,11.65
2019-04-20T23:54:13.843Z,11.56
2019-04-20T23:56:39.834Z,11.56
2019-04-20T23:59:10.562Z,11.50
